Time;durP1;ratioP1;P1;durP2;ratioP2;P2;SDS_P1;SDS_P2;PMS_P1;PMS_P2;Temp;Humidity;BMP_temperature;BMP_pressure;BME280_temperature;BME280_humidity;BME280_pressure;Samples;Min_cycle;Max_cycle;Signal;HPM_P1;HPM_P2
2021/09/27 00:00:34;;;;;;;10.15;8.48;;;19.00;99.90;;;;;;2621690;47;20164;-74
2021/09/27 00:03:04;;;;;;;11.38;9.25;;;18.90;99.90;;;;;;2621686;47;20153;-74
2021/09/27 00:05:33;;;;;;;13.00;8.85;;;18.90;99.90;;;;;;2621697;54;20329;-75
2021/09/27 00:08:02;;;;;;;11.30;8.25;;;19.10;99.90;;;;;;2621469;47;20153;-74
2021/09/27 00:10:37;;;;;;;11.55;7.55;;;18.90;99.90;;;;;;2621771;47;20172;-74
2021/09/27 00:13:08;;;;;;;11.45;8.82;;;18.80;99.90;;;;;;2621854;47;20157;-74
2021/09/27 00:15:39;;;;;;;9.75;8.80;;;18.70;99.90;;;;;;2621842;54;20154;-74
2021/09/27 00:18:09;;;;;;;10.25;9.05;;;18.70;99.90;;;;;;2621234;47;20153;-74
2021/09/27 00:20:40;;;;;;;10.63;9.60;;;18.60;99.90;;;;;;2622169;39;20571;-74
2021/09/27 00:23:10;;;;;;;12.57;10.85;;;18.70;99.90;;;;;;2621483;54;20164;-74
2021/09/27 00:25:42;;;;;;;14.88;10.65;;;18.60;99.90;;;;;;2621732;39;20559;-75
2021/09/27 00:28:11;;;;;;;15.05;13.52;;;18.50;99.90;;;;;;2621179;54;20157;-75
2021/09/27 00:30:40;;;;;;;14.82;11.85;;;18.50;99.90;;;;;;2621413;46;20236;-74
2021/09/27 00:33:09;;;;;;;19.13;14.02;;;18.50;99.90;;;;;;2621397;46;20160;-74
2021/09/27 00:35:40;;;;;;;19.17;17.00;;;18.50;99.90;;;;;;2620909;47;20188;-74
2021/09/27 00:38:11;;;;;;;18.25;16.33;;;18.70;99.90;;;;;;2620602;47;20161;-74
2021/09/27 00:40:45;;;;;;;14.25;12.60;;;18.80;99.90;;;;;;2620669;47;20181;-74
2021/09/27 00:43:15;;;;;;;20.48;18.27;;;18.80;99.90;;;;;;2621073;47;20153;-74
2021/09/27 00:45:53;;;;;;;14.45;12.95;;;18.70;99.90;;;;;;2621764;47;20149;-75
2021/09/27 00:48:22;;;;;;;17.88;15.18;;;18.80;99.90;;;;;;2621691;46;20178;-75
2021/09/27 00:50:54;;;;;;;21.80;17.05;;;18.70;99.90;;;;;;2620722;54;20195;-75
2021/09/27 00:53:28;;;;;;;17.20;15.43;;;18.90;99.90;;;;;;2621600;47;20157;-75
2021/09/27 00:55:59;;;;;;;18.40;15.95;;;18.90;99.90;;;;;;2621823;54;20161;-75
2021/09/27 00:58:31;;;;;;;16.08;14.57;;;18.70;99.90;;;;;;2621845;47;20149;-75
2021/09/27 01:01:00;;;;;;;19.58;15.85;;;18.60;99.90;;;;;;2621653;47;20192;-75
2021/09/27 01:03:30;;;;;;;18.33;16.52;;;18.70;99.90;;;;;;2622042;54;20161;-75
2021/09/27 01:06:08;;;;;;;16.45;14.73;;;18.70;99.90;;;;;;2621470;47;20308;-75
2021/09/27 01:08:47;;;;;;;17.45;15.27;;;18.60;99.90;;;;;;2621488;46;20169;-75
2021/09/27 01:11:37;;;;;;;17.73;16.02;;;18.80;99.90;;;;;;2621097;47;20188;-75
2021/09/27 01:14:20;;;;;;;18.27;16.25;;;18.80;99.90;;;;;;2621356;54;20152;-75
2021/09/27 01:16:56;;;;;;;20.35;18.15;;;18.70;99.90;;;;;;2620795;54;20165;-75
2021/09/27 01:19:55;;;;;;;18.60;16.80;;;18.80;99.90;;;;;;2620379;47;20678;-75
2021/09/27 01:22:39;;;;;;;17.75;15.77;;;18.70;99.90;;;;;;2621266;47;20173;-75
2021/09/27 01:25:38;;;;;;;16.42;14.73;;;18.60;99.90;;;;;;2621572;54;20157;-76
2021/09/27 01:28:46;;;;;;;18.52;16.60;;;18.60;99.90;;;;;;2621216;47;20176;-75
2021/09/27 01:31:42;;;;;;;18.55;15.45;;;18.60;99.90;;;;;;2622143;46;20184;-75
2021/09/27 01:34:18;;;;;;;15.70;14.10;;;18.70;99.90;;;;;;2623200;47;20205;-76
2021/09/27 01:36:54;;;;;;;16.98;15.48;;;18.70;99.90;;;;;;2622425;47;20683;-76
2021/09/27 01:39:31;;;;;;;15.38;13.82;;;18.80;99.90;;;;;;2621929;47;20153;-76
2021/09/27 01:42:09;;;;;;;15.95;14.45;;;18.80;99.90;;;;;;2622238;51;20183;-76
2021/09/27 01:44:45;;;;;;;15.50;14.00;;;18.80;99.90;;;;;;2621806;54;20160;-75
2021/09/27 01:47:21;;;;;;;17.35;14.25;;;18.90;99.90;;;;;;2621675;47;20281;-75
2021/09/27 01:49:59;;;;;;;14.73;13.18;;;18.90;99.90;;;;;;2621567;47;20163;-75
2021/09/27 01:52:35;;;;;;;17.23;15.43;;;18.80;99.90;;;;;;2621392;54;20187;-75
2021/09/27 01:55:09;;;;;;;16.10;14.70;;;18.80;99.90;;;;;;2621177;54;20157;-75
2021/09/27 01:57:45;;;;;;;16.20;14.63;;;18.70;99.90;;;;;;2621286;47;20216;-75
2021/09/27 02:00:19;;;;;;;17.10;15.27;;;18.70;99.90;;;;;;2621767;47;20164;-75
2021/09/27 02:02:55;;;;;;;15.35;13.77;;;18.80;99.90;;;;;;2622068;54;20165;-75
2021/09/27 02:05:35;;;;;;;16.23;14.52;;;18.80;99.90;;;;;;2622741;47;20153;-76
2021/09/27 02:08:08;;;;;;;14.82;13.43;;;18.90;99.90;;;;;;2622893;47;20522;-76
2021/09/27 02:10:42;;;;;;;17.40;15.30;;;18.80;99.90;;;;;;2623550;47;20300;-75
2021/09/27 02:13:18;;;;;;;14.85;13.30;;;18.90;99.90;;;;;;2622865;47;20153;-75
2021/09/27 02:15:52;;;;;;;14.70;13.20;;;18.90;99.90;;;;;;2622649;47;20149;-76
2021/09/27 02:18:26;;;;;;;15.75;14.07;;;18.90;99.90;;;;;;2622055;54;20161;-75
2021/09/27 02:21:04;;;;;;;16.55;14.38;;;18.90;99.90;;;;;;2622248;39;20559;-75
2021/09/27 02:23:40;;;;;;;19.55;13.57;;;18.90;99.90;;;;;;2621599;47;20325;-75
2021/09/27 02:26:08;;;;;;;14.48;12.98;;;18.90;99.90;;;;;;2619709;47;20161;-75
2021/09/27 02:28:37;;;;;;;16.75;14.32;;;18.90;99.90;;;;;;2620653;54;20192;-75
2021/09/27 02:31:12;;;;;;;14.35;13.00;;;18.90;99.90;;;;;;2621149;47;20184;-75
2021/09/27 02:33:48;;;;;;;15.35;13.43;;;18.80;99.90;;;;;;2620617;54;20149;-75
2021/09/27 02:36:24;;;;;;;14.02;12.60;;;18.80;99.90;;;;;;2620551;47;20681;-75
2021/09/27 02:39:01;;;;;;;13.93;12.48;;;18.80;99.90;;;;;;2620568;47;20153;-75
2021/09/27 02:41:37;;;;;;;14.52;13.15;;;18.80;99.90;;;;;;2620588;47;20205;-75
2021/09/27 02:44:07;;;;;;;15.05;13.60;;;18.70;99.90;;;;;;2620693;47;20748;-75
2021/09/27 02:46:42;;;;;;;15.15;13.75;;;18.70;99.90;;;;;;2620496;47;20161;-75
2021/09/27 02:49:13;;;;;;;18.00;14.15;;;18.60;99.90;;;;;;2620161;54;20152;-74
2021/09/27 02:51:47;;;;;;;17.98;16.08;;;18.70;99.90;;;;;;2620170;54;20161;-75
2021/09/27 02:54:22;;;;;;;18.40;15.50;;;18.70;99.90;;;;;;2620183;47;20153;-75
2021/09/27 02:57:15;;;;;;;16.42;14.80;;;18.70;99.90;;;;;;2620319;47;20163;-75
2021/09/27 02:59:55;;;;;;;14.90;13.65;;;18.60;99.90;;;;;;2620486;54;20149;-75
2021/09/27 03:02:28;;;;;;;15.20;13.70;;;18.60;99.90;;;;;;2620346;54;20192;-75
2021/09/27 03:05:08;;;;;;;16.63;14.05;;;18.60;99.90;;;;;;2620404;54;20172;-75
2021/09/27 03:07:52;;;;;;;16.08;14.57;;;18.60;99.90;;;;;;2620044;47;20161;-75
2021/09/27 03:10:32;;;;;;;16.63;14.68;;;18.60;99.90;;;;;;2620131;47;20152;-75
2021/09/27 03:13:12;;;;;;;15.23;13.32;;;18.70;99.90;;;;;;2619973;47;20161;-75
2021/09/27 03:15:56;;;;;;;17.42;15.52;;;18.70;99.90;;;;;;2620441;47;20670;-75
2021/09/27 03:18:35;;;;;;;15.15;13.85;;;18.70;99.90;;;;;;2620180;54;20145;-75
2021/09/27 03:21:19;;;;;;;16.48;14.85;;;18.60;99.90;;;;;;2621357;46;20203;-75
2021/09/27 03:24:01;;;;;;;15.90;14.10;;;18.60;99.90;;;;;;2622040;47;20165;-75
2021/09/27 03:26:40;;;;;;;16.20;12.25;;;18.60;99.90;;;;;;2620200;54;20149;-74
2021/09/27 03:29:20;;;;;;;15.10;13.70;;;18.60;99.90;;;;;;2620387;54;20149;-75
2021/09/27 03:31:58;;;;;;;16.00;14.45;;;18.60;99.90;;;;;;2620364;54;20193;-76
2021/09/27 03:34:39;;;;;;;18.15;16.45;;;18.60;99.90;;;;;;2622080;39;20537;-75
2021/09/27 03:37:29;;;;;;;15.93;14.50;;;18.60;99.90;;;;;;2626656;54;20159;-75
2021/09/27 03:40:16;;;;;;;19.00;17.00;;;18.60;99.90;;;;;;2628859;47;20167;-75
2021/09/27 03:42:51;;;;;;;21.65;19.33;;;18.60;99.90;;;;;;2628828;47;20160;-75
2021/09/27 03:45:25;;;;;;;22.88;19.40;;;18.60;99.90;;;;;;2628601;47;20160;-74
2021/09/27 03:48:02;;;;;;;17.77;16.02;;;18.60;99.90;;;;;;2628209;47;20157;-75
2021/09/27 03:50:37;;;;;;;18.70;16.73;;;18.50;99.90;;;;;;2628271;39;20545;-75
2021/09/27 03:53:10;;;;;;;20.42;18.25;;;18.50;99.90;;;;;;2621620;54;20153;-76
2021/09/27 03:55:48;;;;;;;21.83;19.45;;;18.60;99.90;;;;;;2621330;54;20137;-75
2021/09/27 03:58:22;;;;;;;22.55;20.25;;;18.60;99.90;;;;;;2622380;39;20550;-76
2021/09/27 04:00:57;;;;;;;19.98;17.98;;;18.70;99.90;;;;;;2621793;47;20187;-75
2021/09/27 04:03:41;;;;;;;20.50;18.55;;;18.60;99.90;;;;;;2621441;46;20180;-75
2021/09/27 04:06:28;;;;;;;23.85;21.48;;;18.40;99.90;;;;;;2621304;54;20149;-75
2021/09/27 04:09:05;;;;;;;23.30;20.95;;;18.40;99.90;;;;;;2621188;54;20203;-75
2021/09/27 04:11:41;;;;;;;21.85;19.55;;;18.60;99.90;;;;;;2621043;47;20192;-74
2021/09/27 04:14:25;;;;;;;22.70;20.55;;;18.60;99.90;;;;;;2621410;54;20702;-75
2021/09/27 04:17:05;;;;;;;19.27;17.58;;;18.40;99.90;;;;;;2620536;47;20161;-75
2021/09/27 04:19:50;;;;;;;18.50;16.80;;;18.30;99.90;;;;;;2621122;47;20699;-75
2021/09/27 04:22:27;;;;;;;19.05;17.20;;;18.30;99.90;;;;;;2620903;54;20675;-75
2021/09/27 04:25:10;;;;;;;20.48;18.63;;;18.30;99.90;;;;;;2621009;47;20672;-74
2021/09/27 04:27:59;;;;;;;18.88;16.83;;;18.30;99.90;;;;;;2621251;47;20169;-75
2021/09/27 04:30:47;;;;;;;17.80;15.98;;;18.30;99.90;;;;;;2620656;47;20145;-75
2021/09/27 04:33:28;;;;;;;18.95;17.10;;;18.40;99.90;;;;;;2621502;54;20671;-74
2021/09/27 04:36:07;;;;;;;18.92;17.08;;;18.40;99.90;;;;;;2621159;47;20668;-75
2021/09/27 04:38:39;;;;;;;17.75;15.95;;;18.40;99.90;;;;;;2621502;39;20535;-74
2021/09/27 04:41:34;;;;;;;18.73;16.80;;;18.30;99.90;;;;;;2620801;54;20176;-74
2021/09/27 04:44:16;;;;;;;19.25;17.45;;;18.30;99.90;;;;;;2620559;54;20137;-74
2021/09/27 04:46:50;;;;;;;18.65;16.90;;;18.20;99.90;;;;;;2620935;47;20149;-75
2021/09/27 04:49:42;;;;;;;26.25;21.70;;;18.20;99.90;;;;;;2620719;47;20161;-75
2021/09/27 04:52:15;;;;;;;19.55;17.67;;;18.30;99.90;;;;;;2621580;46;20215;-74
2021/09/27 04:55:08;;;;;;;20.52;18.33;;;18.50;99.90;;;;;;2620309;51;20161;-74
2021/09/27 04:57:50;;;;;;;21.50;17.85;;;18.20;99.90;;;;;;2620057;46;20165;-76
2021/09/27 05:00:31;;;;;;;17.60;15.75;;;18.20;99.90;;;;;;2621120;39;20569;-75
2021/09/27 05:03:39;;;;;;;20.00;18.08;;;18.20;99.90;;;;;;2620366;54;20157;-74
2021/09/27 05:06:38;;;;;;;19.08;16.98;;;18.30;99.90;;;;;;2618670;47;20157;-74
2021/09/27 05:09:14;;;;;;;21.35;17.02;;;18.20;99.90;;;;;;2619402;47;20171;-74
2021/09/27 05:12:15;;;;;;;18.10;16.40;;;18.20;99.90;;;;;;2619645;47;20204;-74
2021/09/27 05:15:08;;;;;;;18.17;16.17;;;18.30;99.90;;;;;;2618881;54;20152;-75
2021/09/27 05:18:00;;;;;;;18.90;17.10;;;18.30;99.90;;;;;;2618690;54;20685;-74
2021/09/27 05:20:59;;;;;;;18.50;16.58;;;18.30;99.90;;;;;;2618703;47;20173;-76
2021/09/27 05:23:34;;;;;;;16.45;14.82;;;18.30;99.90;;;;;;2618219;54;20161;-75
2021/09/27 05:26:30;;;;;;;17.80;16.10;;;18.40;99.90;;;;;;2618792;47;20156;-75
2021/09/27 05:29:06;;;;;;;18.27;16.52;;;18.40;99.90;;;;;;2618908;54;20145;-75
2021/09/27 05:31:58;;;;;;;21.05;18.67;;;18.40;99.90;;;;;;2618622;54;20177;-75
2021/09/27 05:34:40;;;;;;;18.75;16.92;;;18.40;99.90;;;;;;2618414;54;20165;-75
2021/09/27 05:37:28;;;;;;;19.17;17.05;;;18.30;99.90;;;;;;2618489;54;20168;-75
2021/09/27 05:40:15;;;;;;;24.20;21.73;;;18.20;99.90;;;;;;2618819;47;20220;-75
2021/09/27 05:43:11;;;;;;;24.60;17.42;;;18.30;99.90;;;;;;2619395;39;20586;-76
2021/09/27 05:45:51;;;;;;;17.80;16.08;;;18.30;99.90;;;;;;2622887;50;20149;-77
2021/09/27 05:48:29;;;;;;;16.67;15.00;;;18.20;99.90;;;;;;2627389;54;20164;-74
2021/09/27 05:51:09;;;;;;;16.70;15.07;;;18.10;99.90;;;;;;2619364;47;20161;-74
2021/09/27 05:53:55;;;;;;;20.02;16.08;;;18.10;99.90;;;;;;2619427;39;20587;-75
2021/09/27 05:56:32;;;;;;;19.02;17.13;;;18.10;99.90;;;;;;2618467;47;20164;-76
2021/09/27 05:59:07;;;;;;;22.58;18.50;;;18.10;99.90;;;;;;2618499;54;20157;-76
2021/09/27 06:01:49;;;;;;;17.00;15.25;;;18.00;99.90;;;;;;2618745;54;20192;-76
2021/09/27 06:04:27;;;;;;;21.73;17.30;;;17.90;99.90;;;;;;2618861;47;20693;-75
2021/09/27 06:07:06;;;;;;;19.40;15.32;;;17.90;99.90;;;;;;2618196;47;20149;-76
2021/09/27 06:09:44;;;;;;;17.40;15.65;;;18.00;99.90;;;;;;2618382;47;20153;-75
2021/09/27 06:12:23;;;;;;;17.52;14.98;;;17.90;99.90;;;;;;2618672;47;20207;-75
2021/09/27 06:14:59;;;;;;;17.35;15.52;;;17.90;99.90;;;;;;2618501;47;20149;-75
2021/09/27 06:17:53;;;;;;;18.75;16.08;;;17.90;99.90;;;;;;2618759;39;20555;-75
2021/09/27 06:20:34;;;;;;;19.95;14.75;;;17.90;99.90;;;;;;2618575;47;20165;-74
2021/09/27 06:23:42;;;;;;;16.15;14.27;;;17.90;99.90;;;;;;2618553;54;20185;-75
2021/09/27 06:26:13;;;;;;;19.55;17.52;;;17.90;99.90;;;;;;2618954;47;20153;-75
2021/09/27 06:28:49;;;;;;;20.23;18.13;;;17.90;99.90;;;;;;2618587;47;20169;-75
2021/09/27 06:31:26;;;;;;;19.80;17.70;;;18.00;99.90;;;;;;2618612;39;20574;-74
2021/09/27 06:34:00;;;;;;;21.27;19.20;;;18.00;99.90;;;;;;2618943;39;20558;-75
2021/09/27 06:36:33;;;;;;;20.27;18.13;;;17.90;99.90;;;;;;2618156;47;20152;-75
2021/09/27 06:39:14;;;;;;;21.95;19.67;;;17.90;99.90;;;;;;2620281;39;20599;-75
2021/09/27 06:41:44;;;;;;;22.63;20.25;;;18.00;99.90;;;;;;2618374;47;20183;-76
2021/09/27 06:44:15;;;;;;;23.58;19.58;;;18.10;99.90;;;;;;2618253;54;20149;-75
2021/09/27 06:46:45;;;;;;;24.45;22.02;;;18.30;99.90;;;;;;2619145;47;20682;-75
2021/09/27 06:49:15;;;;;;;20.88;18.95;;;18.30;99.90;;;;;;2619142;39;20247;-76
2021/09/27 06:51:46;;;;;;;19.85;17.95;;;18.40;99.90;;;;;;2619475;39;20624;-76
2021/09/27 06:54:20;;;;;;;24.20;21.73;;;18.40;99.90;;;;;;2618883;47;20188;-75
2021/09/27 06:56:50;;;;;;;21.98;19.88;;;18.50;99.90;;;;;;2618749;47;20172;-75
2021/09/27 06:59:20;;;;;;;24.20;21.55;;;18.50;99.90;;;;;;2618581;47;20149;-75
2021/09/27 07:01:49;;;;;;;25.17;22.67;;;18.40;99.90;;;;;;2617363;47;20208;-76
2021/09/27 07:04:19;;;;;;;26.35;22.75;;;18.40;99.90;;;;;;2618940;39;20562;-74
2021/09/27 07:06:48;;;;;;;24.08;21.77;;;18.40;99.90;;;;;;2618810;47;20165;-75
2021/09/27 07:09:19;;;;;;;23.55;21.25;;;18.40;99.90;;;;;;2620030;47;20157;-75
2021/09/27 07:11:48;;;;;;;26.23;23.52;;;18.50;99.90;;;;;;2620181;54;20188;-75
2021/09/27 07:14:18;;;;;;;23.08;20.83;;;18.50;99.90;;;;;;2619706;47;20161;-75
2021/09/27 07:16:46;;;;;;;22.33;20.10;;;18.50;99.90;;;;;;2619603;47;20157;-75
2021/09/27 07:19:15;;;;;;;23.92;21.27;;;18.60;99.90;;;;;;2620030;47;20167;-75
2021/09/27 07:21:45;;;;;;;23.80;21.50;;;18.70;99.90;;;;;;2619767;54;20188;-75
2021/09/27 07:24:15;;;;;;;21.90;19.92;;;18.70;99.90;;;;;;2619087;47;20172;-75
2021/09/27 07:26:46;;;;;;;24.10;21.77;;;18.70;99.90;;;;;;2619404;54;20157;-76
2021/09/27 07:29:15;;;;;;;21.30;19.27;;;18.70;99.90;;;;;;2620189;47;20137;-76
2021/09/27 07:31:45;;;;;;;20.50;18.60;;;18.90;99.90;;;;;;2620048;54;20188;-75
2021/09/27 07:34:14;;;;;;;22.33;20.17;;;18.90;99.90;;;;;;2619366;54;20153;-75
2021/09/27 07:36:43;;;;;;;22.10;19.83;;;18.90;99.90;;;;;;2618772;47;20176;-75
2021/09/27 07:39:12;;;;;;;21.13;19.02;;;19.30;99.90;;;;;;2619253;47;20164;-73
2021/09/27 07:41:42;;;;;;;19.25;17.25;;;19.50;99.90;;;;;;2620447;47;20183;-76
2021/09/27 07:44:13;;;;;;;18.20;16.50;;;19.70;99.90;;;;;;2620122;54;20738;-76
2021/09/27 07:46:42;;;;;;;20.80;16.95;;;19.70;99.90;;;;;;2620271;39;20565;-73
2021/09/27 07:49:11;;;;;;;20.77;18.67;;;19.70;99.90;;;;;;2620011;54;20168;-76
2021/09/27 07:51:43;;;;;;;19.42;17.48;;;19.90;99.90;;;;;;2621286;47;20169;-73
2021/09/27 07:54:13;;;;;;;20.33;18.33;;;20.00;99.90;;;;;;2620596;47;20212;-74
2021/09/27 07:56:42;;;;;;;22.60;20.38;;;20.00;99.90;;;;;;2620617;47;20169;-74
2021/09/27 07:59:14;;;;;;;17.95;16.33;;;20.10;99.90;;;;;;2621370;54;20152;-74
2021/09/27 08:01:42;;;;;;;21.00;18.80;;;19.90;99.90;;;;;;2621410;47;20177;-74
2021/09/27 08:04:15;;;;;;;20.48;18.52;;;20.00;99.90;;;;;;2620324;54;20160;-76
2021/09/27 08:06:44;;;;;;;18.95;17.23;;;20.10;99.90;;;;;;2620791;54;20674;-76
2021/09/27 08:09:13;;;;;;;18.42;16.58;;;20.10;99.90;;;;;;2621126;54;20149;-76
2021/09/27 08:11:43;;;;;;;18.05;16.30;;;20.10;99.90;;;;;;2621827;54;20212;-74
2021/09/27 08:14:15;;;;;;;19.83;18.02;;;20.30;99.90;;;;;;2621318;54;20158;-75
2021/09/27 08:16:43;;;;;;;19.02;17.27;;;20.50;99.90;;;;;;2622600;47;20176;-74
2021/09/27 08:19:13;;;;;;;19.17;17.17;;;20.40;99.90;;;;;;2624020;47;20179;-76
2021/09/27 08:21:42;;;;;;;17.15;15.55;;;20.40;99.90;;;;;;2623440;47;20228;-74
2021/09/27 08:24:11;;;;;;;18.70;16.80;;;20.50;99.90;;;;;;2624385;47;20157;-75
2021/09/27 08:26:40;;;;;;;18.50;16.73;;;20.60;99.90;;;;;;2624347;54;20153;-75
2021/09/27 08:29:09;;;;;;;20.50;18.08;;;20.50;99.90;;;;;;2626590;54;20184;-75
2021/09/27 08:31:40;;;;;;;21.63;19.23;;;20.10;99.90;;;;;;2626963;47;20193;-75
2021/09/27 08:34:10;;;;;;;20.88;19.02;;;20.10;99.90;;;;;;2628555;54;20137;-75
2021/09/27 08:36:39;;;;;;;20.15;18.17;;;20.00;99.90;;;;;;2628847;39;20555;-73
2021/09/27 08:39:08;;;;;;;18.83;17.02;;;20.00;99.90;;;;;;2627851;47;20165;-76
2021/09/27 08:41:51;;;;;;;21.70;18.92;;;20.10;99.90;;;;;;2627114;39;20612;-76
2021/09/27 08:44:38;;;;;;;21.67;17.98;;;20.10;99.90;;;;;;2626169;47;20164;-74
2021/09/27 08:47:16;;;;;;;21.98;19.88;;;20.30;99.90;;;;;;2626585;54;20145;-75
2021/09/27 08:49:52;;;;;;;19.42;16.88;;;20.70;99.90;;;;;;2625024;47;20687;-74
2021/09/27 08:52:24;;;;;;;18.15;16.45;;;20.70;99.90;;;;;;2625490;54;20203;-76
2021/09/27 08:54:55;;;;;;;20.10;18.25;;;20.50;99.90;;;;;;2625154;49;20129;-74
2021/09/27 08:57:45;;;;;;;17.67;16.05;;;20.40;99.90;;;;;;2627068;46;20156;-75
2021/09/27 09:00:27;;;;;;;17.55;15.85;;;20.70;99.90;;;;;;2627705;47;20173;-77
2021/09/27 09:03:06;;;;;;;18.00;16.33;;;20.70;99.90;;;;;;2626066;54;20168;-76
2021/09/27 09:05:39;;;;;;;17.90;16.20;;;20.90;99.90;;;;;;2627154;54;20157;-74
2021/09/27 09:08:16;;;;;;;17.20;15.70;;;21.00;99.90;;;;;;2626469;47;20165;-76
2021/09/27 09:10:48;;;;;;;17.58;16.10;;;21.10;99.90;;;;;;2627171;46;20168;-75
2021/09/27 09:13:23;;;;;;;17.17;15.35;;;20.90;99.90;;;;;;2626795;47;20157;-76
2021/09/27 09:16:01;;;;;;;17.08;15.50;;;20.90;99.90;;;;;;2627150;54;20156;-76
2021/09/27 09:18:35;;;;;;;18.20;16.60;;;20.90;99.90;;;;;;2628300;47;20165;-76
2021/09/27 09:21:07;;;;;;;19.95;15.98;;;20.90;99.90;;;;;;2630754;47;20165;-77
2021/09/27 09:23:39;;;;;;;17.60;15.82;;;20.80;99.90;;;;;;2631618;46;20188;-78
2021/09/27 09:26:11;;;;;;;17.85;16.27;;;20.70;99.90;;;;;;2631279;47;20138;-77
2021/09/27 09:28:41;;;;;;;15.05;13.57;;;20.70;99.90;;;;;;2631034;54;20177;-78
2021/09/27 09:31:15;;;;;;;16.77;15.18;;;20.70;99.90;;;;;;2628761;54;20177;-76
2021/09/27 09:33:55;;;;;;;16.48;15.02;;;20.90;99.90;;;;;;2629031;47;20247;-75
2021/09/27 09:36:28;;;;;;;15.43;13.90;;;21.10;99.90;;;;;;2628589;54;20149;-76
2021/09/27 09:38:57;;;;;;;15.63;14.13;;;21.30;99.90;;;;;;2627743;54;20188;-75
2021/09/27 09:41:45;;;;;;;14.45;12.95;;;21.20;99.90;;;;;;2628831;54;20181;-77
2021/09/27 09:44:24;;;;;;;16.13;14.43;;;21.40;99.90;;;;;;2629058;54;20158;-77
2021/09/27 09:47:01;;;;;;;14.32;12.90;;;21.40;99.90;;;;;;2627495;47;20167;-77
2021/09/27 09:49:52;;;;;;;13.00;11.90;;;21.60;99.90;;;;;;2628047;47;20165;-77
2021/09/27 09:52:27;;;;;;;15.10;12.57;;;21.80;99.90;;;;;;2628611;54;20189;-76
2021/09/27 09:55:00;;;;;;;12.13;11.02;;;21.90;99.90;;;;;;2629105;47;20678;-75
2021/09/27 09:57:36;;;;;;;11.88;10.77;;;22.00;99.90;;;;;;2628841;54;20286;-79
2021/09/27 10:00:13;;;;;;;11.43;10.52;;;21.80;99.90;;;;;;2630075;47;20165;-76
2021/09/27 10:02:45;;;;;;;11.00;10.00;;;22.10;99.90;;;;;;2629016;47;20192;-78
2021/09/27 10:05:30;;;;;;;11.85;10.77;;;22.10;99.90;;;;;;2629036;54;20146;-77
2021/09/27 10:08:02;;;;;;;10.43;9.45;;;22.20;99.90;;;;;;2626940;47;20682;-76
2021/09/27 10:10:34;;;;;;;11.00;9.98;;;22.00;99.90;;;;;;2628121;47;20149;-78
2021/09/27 10:13:05;;;;;;;9.93;9.02;;;22.00;99.90;;;;;;2628980;47;20193;-76
2021/09/27 10:15:54;;;;;;;11.23;8.85;;;22.00;99.90;;;;;;2626916;54;20165;-75
2021/09/27 10:18:27;;;;;;;10.75;9.65;;;22.00;99.90;;;;;;2627798;54;20155;-75
2021/09/27 10:21:31;;;;;;;9.88;8.95;;;21.70;99.90;;;;;;2627297;54;20233;-77
2021/09/27 10:24:16;;;;;;;11.65;8.90;;;21.50;99.90;;;;;;2625844;47;20160;-77
2021/09/27 10:26:50;;;;;;;9.82;8.93;;;21.50;99.90;;;;;;2623771;54;20156;-76
2021/09/27 10:29:25;;;;;;;10.50;9.48;;;21.50;99.90;;;;;;2624710;47;20702;-78
2021/09/27 10:31:58;;;;;;;14.80;11.70;;;21.40;99.90;;;;;;2627316;47;20184;-75
2021/09/27 10:34:32;;;;;;;11.82;10.75;;;21.10;99.90;;;;;;2625119;47;20153;-75
2021/09/27 10:37:11;;;;;;;10.90;9.98;;;21.00;99.90;;;;;;2622555;47;20145;-75
2021/09/27 10:39:40;;;;;;;10.82;9.82;;;21.00;99.90;;;;;;2621352;47;20164;-75
2021/09/27 10:42:11;;;;;;;12.48;10.32;;;21.20;99.90;;;;;;2620908;46;20329;-76
2021/09/27 10:44:43;;;;;;;10.95;9.77;;;21.40;99.90;;;;;;2620983;39;20649;-77
2021/09/27 10:47:16;;;;;;;9.18;8.38;;;21.40;99.90;;;;;;2621819;47;20176;-75
2021/09/27 10:49:49;;;;;;;11.52;9.00;;;21.70;99.90;;;;;;2620811;54;20160;-76
2021/09/27 10:52:42;;;;;;;9.27;8.32;;;21.90;99.90;;;;;;2621937;54;20180;-72
2021/09/27 10:55:18;;;;;;;13.65;7.97;;;22.70;99.90;;;;;;2624645;54;20140;-74
2021/09/27 10:57:53;;;;;;;10.35;8.18;;;23.10;99.90;;;;;;2620849;54;20148;-75
2021/09/27 11:00:40;;;;;;;8.20;7.40;;;23.20;99.90;;;;;;2620905;54;20679;-75
2021/09/27 11:03:17;;;;;;;9.45;8.30;;;23.70;99.90;;;;;;2620490;31;20680;-74
2021/09/27 11:05:56;;;;;;;8.50;7.80;;;23.30;99.90;;;;;;2620803;39;20552;-74
2021/09/27 11:08:51;;;;;;;6.05;5.55;;;22.30;99.90;;;;;;2619429;47;20191;-76
2021/09/27 11:13:48;;;;;;;7.80;7.10;;;21.80;99.90;;;;;;2628840;47;20741;-77
2021/09/27 11:16:24;;;;;;;7.40;6.70;;;21.40;99.90;;;;;;2629435;47;20129;-77
2021/09/27 11:18:58;;;;;;;7.38;6.68;;;21.30;99.90;;;;;;2629367;54;20129;-75
2021/09/27 11:21:44;;;;;;;7.10;6.50;;;21.20;99.90;;;;;;2628874;47;20172;-78
2021/09/27 11:24:53;;;;;;;7.72;6.20;;;21.40;99.90;;;;;;2629075;54;20130;-78
2021/09/27 11:27:35;;;;;;;8.00;5.75;;;21.70;99.90;;;;;;2629927;47;20133;-78
2021/09/27 11:30:26;;;;;;;6.25;5.70;;;21.80;99.90;;;;;;2628684;47;20141;-76
2021/09/27 11:32:58;;;;;;;7.53;6.82;;;21.70;99.90;;;;;;2629087;54;20224;-78
2021/09/27 11:35:48;;;;;;;6.47;5.85;;;21.40;99.90;;;;;;2631182;39;20600;-79
2021/09/27 11:38:31;;;;;;;6.03;5.45;;;21.40;99.90;;;;;;2629171;47;20152;-79
2021/09/27 11:41:36;;;;;;;7.38;5.88;;;21.60;99.90;;;;;;2627437;47;20157;-77
2021/09/27 11:44:16;;;;;;;6.38;5.88;;;21.70;99.90;;;;;;2629628;47;20129;-76
2021/09/27 11:47:02;;;;;;;5.35;4.90;;;22.20;99.90;;;;;;2629426;54;20137;-76
2021/09/27 11:49:52;;;;;;;6.78;5.15;;;22.90;99.90;;;;;;2625851;47;20146;-75
2021/09/27 11:52:36;;;;;;;5.68;5.07;;;23.00;99.90;;;;;;2626550;54;20180;-76
2021/09/27 11:55:09;;;;;;;5.53;4.78;;;22.90;99.90;;;;;;2630958;39;20546;-73
2021/09/27 11:57:45;;;;;;;5.38;4.93;;;22.50;99.90;;;;;;2629618;47;20161;-79
2021/09/27 12:00:21;;;;;;;6.80;5.18;;;22.20;99.90;;;;;;2630078;54;20153;-75
2021/09/27 12:02:59;;;;;;;5.57;5.07;;;22.00;99.90;;;;;;2629418;46;20165;-75
2021/09/27 12:05:36;;;;;;;5.45;4.80;;;21.70;99.90;;;;;;2629479;46;20863;-78
2021/09/27 12:08:11;;;;;;;8.85;5.90;;;21.50;99.90;;;;;;2630518;54;20153;-79
2021/09/27 12:10:48;;;;;;;6.45;5.82;;;21.70;99.90;;;;;;2630317;46;20188;-74
2021/09/27 12:13:23;;;;;;;6.47;5.90;;;22.00;99.90;;;;;;2630538;54;20316;-81
2021/09/27 12:15:59;;;;;;;6.60;6.00;;;22.00;99.90;;;;;;2629506;47;20140;-80
2021/09/27 12:18:41;;;;;;;7.70;6.75;;;22.10;99.90;;;;;;2630170;54;20152;-75
2021/09/27 12:21:19;;;;;;;6.28;5.78;;;22.20;99.90;;;;;;2629599;54;20161;-78
2021/09/27 12:23:50;;;;;;;8.63;5.88;;;22.30;99.90;;;;;;2630964;46;20586;-80
2021/09/27 12:26:28;;;;;;;6.90;6.38;;;22.20;99.90;;;;;;2630422;46;20130;-76
2021/09/27 12:29:10;;;;;;;8.00;6.78;;;22.20;99.90;;;;;;2629131;54;20153;-79
2021/09/27 12:31:44;;;;;;;6.43;5.43;;;22.10;99.90;;;;;;2631274;46;20203;-80
2021/09/27 12:34:17;;;;;;;6.13;5.47;;;22.20;99.90;;;;;;2635752;39;20707;-82
2021/09/27 12:36:45;;;;;;;7.93;5.95;;;22.20;99.90;;;;;;2630927;47;20141;-78
2021/09/27 12:39:14;;;;;;;9.40;6.60;;;22.40;99.90;;;;;;2630208;54;20251;-76
2021/09/27 12:41:46;;;;;;;7.28;6.63;;;22.50;99.90;;;;;;2630702;47;20177;-77
2021/09/27 12:44:22;;;;;;;7.03;6.22;;;22.40;99.90;;;;;;2631180;46;20147;-82
2021/09/27 12:46:53;;;;;;;7.65;6.78;;;22.60;99.90;;;;;;2630276;47;20164;-77
2021/09/27 12:49:30;;;;;;;7.40;6.80;;;22.80;99.90;;;;;;2642723;31;20269;-77
2021/09/27 12:52:01;;;;;;;7.80;7.05;;;22.90;99.90;;;;;;2629735;47;20175;-80
2021/09/27 12:54:33;;;;;;;8.07;7.28;;;22.90;99.90;;;;;;2630632;46;20161;-80
2021/09/27 12:57:07;;;;;;;9.65;8.35;;;23.00;99.90;;;;;;2631183;47;20148;-81
2021/09/27 12:59:39;;;;;;;8.07;7.38;;;23.20;99.90;;;;;;2630108;54;20157;-80
2021/09/27 13:02:15;;;;;;;7.32;6.72;;;23.00;99.90;;;;;;2630286;46;20172;-79
2021/09/27 13:04:47;;;;;;;8.07;7.30;;;23.00;99.90;;;;;;2628851;46;20160;-77
2021/09/27 13:07:18;;;;;;;8.27;7.53;;;22.70;99.90;;;;;;2629275;54;20201;-77
2021/09/27 13:10:05;;;;;;;8.60;7.90;;;22.80;99.90;;;;;;2630025;47;20154;-77
2021/09/27 13:12:36;;;;;;;7.40;6.80;;;22.90;99.90;;;;;;2628732;54;20745;-75
2021/09/27 13:15:15;;;;;;;10.02;7.63;;;23.00;99.90;;;;;;2628420;47;20191;-77
2021/09/27 13:18:02;;;;;;;8.20;7.40;;;22.80;99.90;;;;;;2630510;54;20145;-78
2021/09/27 13:20:36;;;;;;;8.68;7.13;;;23.40;99.90;;;;;;2630705;46;20168;-76
2021/09/27 13:23:08;;;;;;;8.18;7.47;;;23.60;99.90;;;;;;2630946;54;20168;-75